Terminal Aerodrome Forecast
Issued by NWS

Home | Current Version | Previous Version | Text Only | Print | Product List | Glossary On
Versions: 1 2 3 4 5 6 7 8 9 10 11 12 13 14 15 16 17 18 19 20
000
FTUS46 KMTR 022300
TAFSTS
TAF
KSTS 022338Z 0300/0324 23011KT P6SM SKC
     FM030300 20006KT P6SM SKC
     FM030600 VRB03KT P6SM SKC
      TEMPO 0312/0316 OVC015
     FM031900 21008KT P6SM SKC=

USA.gov is the U.S. government's official web portal to all federal, state and local government web resources and services.